createdAt,value
2023-02-24T00:00:34.878Z,2.70
2023-02-24T00:03:26.059Z,2.70
2023-02-24T00:06:15.283Z,2.70
2023-02-24T00:09:09.621Z,2.70
2023-02-24T00:12:00.746Z,2.60
2023-02-24T00:14:49.976Z,2.70
2023-02-24T00:17:40.179Z,2.60
2023-02-24T00:20:33.905Z,2.60
2023-02-24T00:23:24.030Z,2.60
2023-02-24T00:26:15.027Z,2.60
2023-02-24T00:29:10.121Z,2.60
2023-02-24T00:32:01.242Z,2.60
2023-02-24T00:34:51.379Z,2.60
2023-02-24T00:37:42.245Z,2.50
2023-02-24T00:40:32.356Z,2.60
2023-02-24T00:43:21.789Z,2.70
2023-02-24T00:46:13.096Z,2.60
2023-02-24T00:49:05.944Z,2.60
2023-02-24T00:51:56.333Z,2.70
2023-02-24T00:54:48.552Z,2.50
2023-02-24T00:57:40.076Z,2.50
2023-02-24T01:00:30.832Z,2.50
2023-02-24T01:03:20.384Z,2.50
2023-02-24T01:06:09.971Z,2.50
2023-02-24T01:09:01.423Z,2.50
2023-02-24T01:12:18.361Z,2.60
2023-02-24T01:15:12.184Z,2.60
2023-02-24T01:18:01.622Z,2.50
2023-02-24T01:20:51.168Z,2.60
2023-02-24T01:23:41.181Z,2.60
2023-02-24T01:26:31.306Z,2.60
2023-02-24T01:29:24.901Z,2.70
2023-02-24T01:32:19.533Z,2.60
2023-02-24T01:35:10.197Z,2.70
2023-02-24T01:38:02.106Z,2.60
2023-02-24T01:40:58.751Z,2.70
2023-02-24T01:43:59.160Z,2.70
2023-02-24T01:46:53.193Z,2.50
2023-02-24T01:49:46.959Z,2.60
2023-02-24T01:52:39.442Z,2.60
2023-02-24T01:55:33.593Z,2.60
2023-02-24T01:58:26.636Z,2.70
2023-02-24T02:01:20.857Z,2.70
2023-02-24T02:04:18.667Z,2.60
2023-02-24T02:07:10.953Z,2.60
2023-02-24T02:10:04.323Z,2.60
2023-02-24T02:12:38.635Z,2.70
2023-02-24T05:37:17.465Z,3.10
2023-02-24T05:43:42.500Z,3.10
2023-02-24T05:46:33.376Z,3.10
2023-02-24T05:49:27.340Z,3.10
2023-02-24T05:52:18.433Z,3.10
2023-02-24T05:55:14.308Z,3.20
2023-02-24T05:58:06.590Z,3.20
2023-02-24T06:00:56.801Z,3.20
2023-02-24T06:03:49.316Z,3.30
2023-02-24T06:06:41.116Z,3.40
2023-02-24T06:09:32.281Z,3.50
2023-02-24T06:12:23.384Z,3.50
2023-02-24T06:15:13.656Z,3.50
2023-02-24T06:18:03.462Z,3.60
2023-02-24T06:20:54.756Z,3.60
2023-02-24T06:23:46.665Z,3.70
2023-02-24T06:26:45.346Z,3.70
2023-02-24T06:29:35.341Z,3.70
2023-02-24T06:32:27.502Z,3.80
2023-02-24T06:35:18.086Z,3.80
2023-02-24T06:38:07.662Z,3.80
2023-02-24T06:40:59.485Z,3.90
2023-02-24T06:43:50.931Z,4.00
2023-02-24T06:46:41.618Z,4.10
2023-02-24T06:49:32.267Z,4.20
2023-02-24T06:52:21.717Z,4.20
2023-02-24T06:55:25.781Z,4.30
2023-02-24T06:58:19.606Z,4.30
2023-02-24T07:01:12.356Z,4.30
2023-02-24T07:04:18.215Z,4.40
2023-02-24T07:07:07.992Z,4.50
2023-02-24T07:09:58.235Z,4.60
2023-02-24T07:12:48.097Z,4.70
2023-02-24T07:15:38.832Z,4.60
2023-02-24T07:18:31.290Z,4.70
2023-02-24T07:21:24.175Z,4.70
2023-02-24T07:24:15.325Z,4.80
2023-02-24T07:27:07.772Z,4.70
2023-02-24T07:29:57.653Z,4.70
2023-02-24T07:32:49.000Z,4.70
2023-02-24T07:35:41.600Z,4.70
2023-02-24T07:38:31.510Z,4.70
2023-02-24T07:41:23.388Z,4.80
2023-02-24T07:44:14.396Z,4.80
2023-02-24T07:47:08.306Z,4.80
2023-02-24T07:49:58.019Z,4.80
2023-02-24T07:52:50.171Z,4.90
2023-02-24T07:55:40.522Z,5.00
2023-02-24T07:58:30.220Z,5.10
2023-02-24T08:01:24.509Z,5.10
2023-02-24T08:04:16.274Z,5.10
2023-02-24T08:07:13.677Z,5.20
2023-02-24T08:10:24.699Z,5.30
2023-02-24T08:13:14.286Z,5.40
2023-02-24T08:16:06.418Z,5.50
2023-02-24T08:18:58.259Z,5.60
2023-02-24T08:21:50.671Z,5.70
2023-02-24T08:24:40.288Z,5.80
2023-02-24T08:27:32.311Z,5.90
2023-02-24T08:30:24.361Z,6.10
2023-02-24T08:33:17.838Z,6.20
2023-02-24T08:36:08.171Z,6.20
2023-02-24T08:39:00.187Z,6.30
2023-02-24T08:41:52.188Z,6.30
2023-02-24T08:44:45.110Z,6.60
2023-02-24T08:47:36.553Z,6.40
2023-02-24T08:50:31.532Z,6.40
2023-02-24T08:53:21.369Z,6.40
2023-02-24T08:56:13.275Z,6.50
2023-02-24T08:59:07.138Z,6.70
2023-02-24T09:02:18.572Z,6.70
2023-02-24T09:05:14.392Z,6.70
2023-02-24T09:08:05.304Z,6.80
2023-02-24T09:10:55.002Z,6.80
2023-02-24T09:13:58.658Z,6.60
2023-02-24T09:17:03.890Z,6.80
2023-02-24T09:20:12.504Z,6.80
2023-02-24T09:23:04.000Z,6.90
2023-02-24T09:25:54.777Z,6.90
2023-02-24T09:28:55.131Z,7.00
2023-02-24T09:31:55.837Z,7.10
2023-02-24T09:34:46.322Z,7.20
2023-02-24T09:37:42.255Z,7.20
2023-02-24T09:40:41.047Z,7.10
2023-02-24T09:43:40.554Z,7.10
2023-02-24T09:46:31.030Z,7.40
2023-02-24T09:49:24.336Z,7.50
2023-02-24T09:52:22.167Z,7.80
2023-02-24T09:55:27.014Z,8.20
2023-02-24T09:58:34.801Z,8.40
2023-02-24T10:01:47.549Z,8.40
2023-02-24T10:04:56.595Z,8.60
2023-02-24T10:07:46.386Z,8.90
2023-02-24T10:10:39.668Z,9.00
2023-02-24T10:13:33.013Z,9.20
2023-02-24T10:16:25.662Z,9.10
2023-02-24T10:19:26.251Z,9.00
2023-02-24T10:22:29.350Z,9.00
2023-02-24T10:25:55.299Z,8.70
2023-02-24T10:28:52.822Z,8.50
2023-02-24T10:31:48.429Z,8.50
2023-02-24T10:34:38.371Z,8.40
2023-02-24T10:37:29.787Z,8.30
2023-02-24T10:40:26.832Z,8.30
2023-02-24T10:43:20.099Z,8.20
2023-02-24T10:46:38.592Z,8.20
2023-02-24T10:49:29.466Z,8.30
2023-02-24T10:52:39.442Z,8.00
2023-02-24T10:55:54.156Z,8.10
2023-02-24T10:58:57.025Z,8.10
2023-02-24T11:01:59.818Z,8.00
2023-02-24T11:05:12.126Z,7.80
2023-02-24T11:08:16.121Z,7.70
2023-02-24T11:11:20.626Z,7.70
2023-02-24T11:14:36.509Z,7.50
2023-02-24T11:17:28.468Z,7.50
2023-02-24T11:20:39.206Z,7.60
2023-02-24T11:23:40.101Z,7.50
2023-02-24T11:26:36.203Z,7.70
2023-02-24T11:29:40.161Z,7.70
2023-02-24T11:32:59.634Z,7.80
2023-02-24T11:35:58.581Z,7.70
2023-02-24T11:39:11.827Z,7.80
2023-02-24T11:42:13.988Z,7.70
2023-02-24T11:45:09.486Z,7.70
2023-02-24T11:48:05.522Z,7.60
2023-02-24T11:51:01.751Z,7.60
2023-02-24T11:53:55.590Z,7.70
2023-02-24T11:56:48.533Z,7.80
2023-02-24T11:59:42.003Z,8.00
2023-02-24T12:02:40.279Z,8.10
2023-02-24T12:05:37.559Z,8.10
2023-02-24T12:08:33.944Z,8.30
2023-02-24T12:11:35.182Z,8.60
2023-02-24T12:14:32.670Z,8.70
2023-02-24T12:17:32.868Z,8.60
2023-02-24T12:20:28.112Z,8.70
2023-02-24T12:23:25.105Z,8.40
2023-02-24T12:26:21.778Z,8.50
2023-02-24T12:29:33.019Z,8.40
2023-02-24T12:32:32.675Z,8.30
2023-02-24T12:35:30.587Z,8.30
2023-02-24T12:38:51.328Z,8.20
2023-02-24T12:41:50.028Z,8.20
2023-02-24T12:44:48.352Z,8.30
2023-02-24T12:47:46.897Z,8.30
2023-02-24T12:50:47.064Z,8.10
2023-02-24T12:53:45.937Z,8.10
2023-02-24T12:56:47.444Z,8.00
2023-02-24T12:59:39.945Z,8.10
2023-02-24T13:02:38.396Z,8.00
2023-02-24T13:05:33.890Z,8.00
2023-02-24T13:08:30.650Z,8.30
2023-02-24T13:11:37.700Z,8.20
2023-02-24T13:14:32.825Z,8.40
2023-02-24T13:17:25.522Z,8.60
2023-02-24T13:20:27.685Z,8.70
2023-02-24T13:23:23.479Z,8.60
2023-02-24T13:26:12.973Z,8.50
2023-02-24T13:29:05.845Z,8.40
2023-02-24T13:31:56.708Z,8.30
2023-02-24T13:34:47.282Z,8.10
2023-02-24T13:37:39.245Z,8.00
2023-02-24T13:40:29.416Z,7.90
2023-02-24T13:43:29.277Z,7.90
2023-02-24T13:46:21.390Z,7.70
2023-02-24T13:49:30.008Z,7.70
2023-02-24T13:52:32.954Z,7.80
2023-02-24T13:55:33.848Z,7.80
2023-02-24T13:58:50.813Z,8.00
2023-02-24T14:01:51.850Z,8.10
2023-02-24T14:04:49.260Z,8.20
2023-02-24T14:07:40.198Z,8.20
2023-02-24T14:10:33.961Z,8.20
2023-02-24T14:13:29.983Z,8.10
2023-02-24T14:16:23.306Z,8.20
2023-02-24T14:19:17.629Z,8.20
2023-02-24T14:22:07.860Z,8.00
2023-02-24T14:25:04.538Z,8.00
2023-02-24T14:27:56.655Z,7.90
2023-02-24T14:30:47.303Z,7.90
2023-02-24T14:33:38.879Z,7.90
2023-02-24T14:36:33.344Z,7.80
2023-02-24T14:39:25.019Z,7.90
2023-02-24T14:42:16.568Z,7.90
2023-02-24T14:45:19.500Z,8.00
2023-02-24T14:48:24.951Z,8.00
2023-02-24T14:51:21.521Z,7.80
2023-02-24T14:54:23.218Z,7.80
2023-02-24T14:57:16.780Z,7.70
2023-02-24T15:00:12.437Z,7.60
2023-02-24T15:03:08.652Z,7.60
2023-02-24T15:06:00.323Z,7.50
2023-02-24T15:08:54.181Z,7.50
2023-02-24T15:11:45.592Z,7.30
2023-02-24T15:14:35.521Z,7.20
2023-02-24T15:17:26.231Z,7.20
2023-02-24T15:20:38.360Z,7.20
2023-02-24T15:23:30.819Z,7.10
2023-02-24T15:26:31.357Z,7.00
2023-02-24T15:29:27.944Z,7.00
2023-02-24T15:32:20.502Z,6.90
2023-02-24T15:35:25.482Z,6.90
2023-02-24T15:38:23.658Z,6.90
2023-02-24T15:41:15.587Z,6.90
2023-02-24T15:44:06.001Z,6.80
2023-02-24T15:46:58.193Z,6.80
2023-02-24T15:49:48.126Z,6.80
2023-02-24T15:52:39.090Z,6.70
2023-02-24T15:55:33.176Z,6.70
2023-02-24T15:58:26.492Z,6.70
2023-02-24T16:01:16.486Z,6.70
2023-02-24T16:04:10.543Z,6.70
2023-02-24T16:07:00.826Z,6.60
2023-02-24T16:09:53.944Z,6.50
2023-02-24T16:12:52.326Z,6.50
2023-02-24T16:15:43.389Z,6.50
2023-02-24T16:18:33.601Z,6.50
2023-02-24T16:21:25.358Z,6.50
2023-02-24T16:24:15.087Z,6.60
2023-02-24T16:27:04.927Z,6.40
2023-02-24T16:29:55.206Z,6.30
2023-02-24T16:32:45.385Z,6.30
2023-02-24T16:35:36.265Z,6.30
2023-02-24T16:38:28.839Z,6.20
2023-02-24T16:41:19.508Z,6.20
2023-02-24T16:44:11.205Z,6.30
2023-02-24T16:47:01.319Z,6.30
2023-02-24T16:49:51.963Z,6.10
2023-02-24T16:52:42.103Z,5.60
2023-02-24T16:55:34.415Z,5.70
2023-02-24T16:58:25.680Z,5.60
2023-02-24T17:01:21.752Z,5.60
2023-02-24T17:04:14.111Z,5.50
2023-02-24T17:07:05.109Z,5.30
2023-02-24T17:09:54.658Z,5.20
2023-02-24T17:12:47.291Z,5.10
2023-02-24T17:15:36.992Z,5.00
2023-02-24T17:18:28.581Z,4.80
2023-02-24T17:21:19.381Z,4.70
2023-02-24T17:24:10.201Z,4.60
2023-02-24T17:27:02.039Z,4.50
2023-02-24T17:29:54.430Z,4.40
2023-02-24T17:32:45.006Z,4.20
2023-02-24T17:35:35.664Z,4.20
2023-02-24T17:38:26.598Z,4.20
2023-02-24T17:41:17.343Z,4.10
2023-02-24T17:44:07.975Z,4.10
2023-02-24T17:46:59.438Z,4.10
2023-02-24T17:49:49.693Z,4.10
2023-02-24T17:52:42.042Z,4.10
2023-02-24T17:55:55.956Z,4.10
2023-02-24T17:58:59.571Z,4.10
2023-02-24T18:01:50.204Z,4.10
2023-02-24T18:04:43.269Z,4.20
2023-02-24T18:07:34.486Z,4.20
2023-02-24T18:10:24.926Z,4.10
2023-02-24T18:13:15.271Z,3.90
2023-02-24T18:16:12.536Z,3.80
2023-02-24T18:19:03.139Z,3.80
2023-02-24T18:21:58.535Z,3.80
2023-02-24T18:24:49.220Z,3.80
2023-02-24T18:27:40.569Z,3.80
2023-02-24T18:30:31.182Z,3.70
2023-02-24T18:33:22.565Z,3.80
2023-02-24T18:36:14.843Z,3.80
2023-02-24T18:39:10.860Z,3.80
2023-02-24T18:42:01.993Z,3.90
2023-02-24T18:44:52.819Z,3.80
2023-02-24T18:47:51.480Z,3.80
2023-02-24T18:50:41.659Z,3.80
2023-02-24T18:53:35.176Z,3.90
2023-02-24T18:56:30.419Z,3.80
2023-02-24T18:59:22.088Z,3.70
2023-02-24T19:02:13.754Z,3.60
2023-02-24T19:05:10.940Z,3.60
2023-02-24T19:08:03.701Z,3.50
2023-02-24T19:10:55.471Z,3.60
2023-02-24T19:13:49.934Z,3.60
2023-02-24T19:16:43.296Z,3.60
2023-02-24T19:19:36.120Z,3.60
2023-02-24T19:22:30.639Z,3.60
2023-02-24T19:25:21.993Z,3.60
2023-02-24T19:28:15.310Z,3.60
2023-02-24T19:31:14.727Z,3.60
2023-02-24T19:34:07.983Z,3.60
2023-02-24T19:36:59.598Z,3.50
2023-02-24T19:39:52.950Z,3.30
2023-02-24T19:42:46.380Z,3.20
2023-02-24T19:45:39.220Z,3.20
2023-02-24T19:48:32.822Z,3.00
2023-02-24T19:51:27.833Z,2.90
2023-02-24T19:54:23.683Z,2.80
2023-02-24T19:57:15.860Z,2.70
2023-02-24T20:00:08.506Z,2.70
2023-02-24T20:02:59.013Z,2.70
2023-02-24T20:05:52.624Z,2.80
2023-02-24T20:08:44.656Z,2.70
2023-02-24T20:11:39.586Z,2.60
2023-02-24T20:14:33.197Z,2.60
2023-02-24T20:17:25.305Z,2.50
2023-02-24T20:20:18.850Z,2.50
2023-02-24T20:23:12.353Z,2.50
2023-02-24T20:26:05.075Z,2.40
2023-02-24T20:28:58.191Z,2.40
2023-02-24T20:31:49.793Z,2.40
2023-02-24T20:34:42.249Z,2.40
2023-02-24T20:37:35.672Z,2.30
2023-02-24T20:40:29.042Z,2.40
2023-02-24T20:43:20.919Z,2.20
2023-02-24T20:46:18.362Z,2.10
2023-02-24T20:49:15.783Z,2.00
2023-02-24T20:52:09.067Z,2.00
2023-02-24T20:55:01.770Z,2.00
2023-02-24T20:57:54.225Z,2.00
2023-02-24T21:00:47.029Z,2.00
2023-02-24T21:03:37.982Z,2.00
2023-02-24T21:06:30.451Z,2.00
2023-02-24T21:09:21.777Z,2.00
2023-02-24T21:12:15.877Z,2.10
2023-02-24T21:15:10.066Z,2.10
2023-02-24T21:18:00.771Z,2.10
2023-02-24T21:20:56.546Z,2.00
2023-02-24T21:23:47.204Z,2.10
2023-02-24T21:26:38.085Z,2.10
2023-02-24T21:29:28.693Z,2.10
2023-02-24T21:32:22.443Z,2.10
2023-02-24T21:35:13.537Z,2.00
2023-02-24T21:38:04.536Z,2.00
2023-02-24T21:40:55.308Z,2.00
2023-02-24T21:43:46.340Z,1.90
2023-02-24T21:46:39.110Z,1.90
2023-02-24T21:49:33.930Z,1.90
2023-02-24T21:52:23.671Z,1.90
2023-02-24T21:55:13.812Z,1.90
2023-02-24T21:58:03.965Z,1.90
2023-02-24T22:00:53.803Z,1.80
2023-02-24T22:03:44.164Z,1.80
2023-02-24T22:06:37.221Z,1.70
2023-02-24T22:09:27.051Z,1.80
2023-02-24T22:12:16.743Z,1.70
2023-02-24T22:15:06.984Z,1.70
2023-02-24T22:17:56.853Z,1.70
2023-02-24T22:20:46.420Z,1.60
2023-02-24T22:23:37.834Z,1.60
2023-02-24T22:26:27.525Z,1.60
2023-02-24T22:29:17.105Z,1.50
2023-02-24T22:32:15.403Z,1.60
2023-02-24T22:35:04.929Z,1.50
2023-02-24T22:37:55.129Z,1.60
2023-02-24T22:40:46.557Z,1.60
2023-02-24T22:43:37.388Z,1.60
2023-02-24T22:46:29.509Z,1.60
2023-02-24T22:49:19.685Z,1.60
2023-02-24T22:52:10.009Z,1.70
2023-02-24T22:54:59.709Z,1.70
2023-02-24T22:57:50.832Z,1.70
2023-02-24T23:00:43.225Z,1.80
2023-02-24T23:03:32.934Z,1.80
2023-02-24T23:06:26.512Z,1.80
2023-02-24T23:09:20.199Z,1.90
2023-02-24T23:12:11.823Z,1.90
2023-02-24T23:15:02.883Z,1.90
2023-02-24T23:17:53.860Z,2.00
2023-02-24T23:20:45.018Z,2.00
2023-02-24T23:23:35.454Z,2.10
2023-02-24T23:26:25.934Z,2.10
2023-02-24T23:29:17.595Z,2.10
2023-02-24T23:32:08.729Z,2.10
2023-02-24T23:34:58.570Z,2.20
2023-02-24T23:37:49.117Z,2.20
2023-02-24T23:40:49.496Z,2.20
2023-02-24T23:43:40.557Z,2.10
2023-02-24T23:46:30.039Z,2.20
2023-02-24T23:49:21.550Z,2.10
2023-02-24T23:52:12.385Z,2.10
2023-02-24T23:55:02.676Z,2.20
2023-02-24T23:57:57.390Z,2.20
